createdAt,value
2022-12-08T00:01:29.490Z,94.80
2022-12-08T00:03:59.267Z,94.90
2022-12-08T00:06:59.572Z,94.90
2022-12-08T00:09:27.042Z,94.90
2022-12-08T00:11:59.922Z,94.80
2022-12-08T00:14:33.193Z,94.90
2022-12-08T00:17:01.235Z,94.90
2022-12-08T00:19:29.269Z,94.90
2022-12-08T00:21:57.212Z,94.90
2022-12-08T00:24:29.141Z,95.00
2022-12-08T00:26:56.391Z,94.90
2022-12-08T00:29:23.788Z,94.90
2022-12-08T00:31:51.615Z,94.80
2022-12-08T00:34:19.001Z,94.80
2022-12-08T00:36:46.820Z,94.80
2022-12-08T00:39:15.716Z,95.20
2022-12-08T00:42:01.688Z,94.70
2022-12-08T00:44:29.133Z,94.50
2022-12-08T00:46:56.969Z,94.50
2022-12-08T00:49:24.375Z,94.70
2022-12-08T00:51:52.027Z,94.70
2022-12-08T00:54:19.425Z,94.70
2022-12-08T00:56:46.720Z,94.90
2022-12-08T00:59:14.528Z,94.80
2022-12-08T01:01:44.819Z,94.90
2022-12-08T01:04:15.532Z,95.00
2022-12-08T01:06:43.600Z,95.00
2022-12-08T01:09:12.945Z,95.00
2022-12-08T01:11:40.681Z,95.00
2022-12-08T01:14:08.999Z,94.90
2022-12-08T01:16:37.036Z,94.80
2022-12-08T01:19:04.833Z,94.80
2022-12-08T01:21:34.862Z,94.80
2022-12-08T01:24:02.835Z,94.80
2022-12-08T01:26:30.139Z,94.80
2022-12-08T01:28:57.450Z,94.90
2022-12-08T01:31:24.792Z,94.90
2022-12-08T01:33:52.364Z,94.90
2022-12-08T01:36:31.348Z,95.00
2022-12-08T01:39:01.319Z,95.10
2022-12-08T01:41:31.863Z,95.00
2022-12-08T01:44:00.824Z,95.10
2022-12-08T01:46:31.448Z,95.00
2022-12-08T01:49:20.907Z,95.40
2022-12-08T01:51:51.182Z,95.10
2022-12-08T01:54:20.905Z,95.00
2022-12-08T01:57:06.296Z,95.10
2022-12-08T01:59:39.507Z,95.10
2022-12-08T02:02:08.903Z,95.40
2022-12-08T02:04:36.688Z,94.90
2022-12-08T02:07:08.273Z,94.90
2022-12-08T02:09:37.395Z,94.90
2022-12-08T02:12:04.906Z,95.00
2022-12-08T02:14:32.279Z,95.00
2022-12-08T02:17:15.736Z,95.00
2022-12-08T02:20:20.875Z,95.00
2022-12-08T02:23:27.644Z,95.00
2022-12-08T02:26:19.964Z,95.00
2022-12-08T02:29:18.619Z,95.30
2022-12-08T02:32:16.308Z,95.00
2022-12-08T02:35:02.552Z,95.00
2022-12-08T02:37:49.365Z,95.00
2022-12-08T02:40:29.793Z,94.90
2022-12-08T02:43:02.608Z,95.00
2022-12-08T02:45:55.355Z,94.90
2022-12-08T02:48:22.887Z,95.00
2022-12-08T02:50:50.297Z,94.90
2022-12-08T02:53:17.636Z,95.00
2022-12-08T02:56:03.160Z,95.00
2022-12-08T02:58:55.316Z,95.00
2022-12-08T03:01:39.379Z,95.00
2022-12-08T03:04:15.468Z,94.90
2022-12-08T03:06:54.152Z,94.90
2022-12-08T03:09:46.183Z,94.90
2022-12-08T03:12:33.411Z,94.90
2022-12-08T03:15:08.419Z,95.00
2022-12-08T03:17:38.183Z,95.10
2022-12-08T03:20:12.043Z,95.10
2022-12-08T03:22:41.447Z,95.10
2022-12-08T03:25:13.070Z,95.10
2022-12-08T03:27:40.893Z,95.00
2022-12-08T03:30:09.412Z,95.00
2022-12-08T03:32:49.356Z,95.00
2022-12-08T03:35:38.206Z,95.00
2022-12-08T03:38:08.303Z,94.90
2022-12-08T03:40:36.200Z,95.00
2022-12-08T03:43:04.130Z,95.00
2022-12-08T03:45:31.756Z,95.00
2022-12-08T03:47:59.048Z,95.10
2022-12-08T03:50:26.531Z,95.10
2022-12-08T03:52:53.806Z,95.20
2022-12-08T03:55:21.473Z,95.20
2022-12-08T03:57:48.815Z,95.20
2022-12-08T04:00:17.002Z,95.20
2022-12-08T04:02:44.614Z,95.30
2022-12-08T04:05:12.007Z,95.30
2022-12-08T04:07:39.380Z,95.30
2022-12-08T04:10:07.554Z,95.20
2022-12-08T04:12:35.027Z,95.30
2022-12-08T04:15:02.307Z,95.20
2022-12-08T04:17:29.599Z,95.20
2022-12-08T04:19:59.214Z,95.20
2022-12-08T04:22:26.471Z,95.20
2022-12-08T04:24:53.974Z,95.20
2022-12-08T04:27:21.240Z,95.10
2022-12-08T04:29:48.492Z,95.00
2022-12-08T04:32:15.776Z,95.30
2022-12-08T04:34:43.197Z,95.30
2022-12-08T04:37:10.449Z,95.40
2022-12-08T04:39:37.732Z,95.40
2022-12-08T04:42:05.402Z,95.40
2022-12-08T04:44:32.775Z,95.40
2022-12-08T04:47:00.255Z,95.30
2022-12-08T04:49:27.602Z,95.40
2022-12-08T04:51:54.947Z,95.40
2022-12-08T04:54:22.209Z,95.50
2022-12-08T04:56:49.646Z,95.50
2022-12-08T04:59:17.153Z,95.50
2022-12-08T05:01:44.886Z,95.60
2022-12-08T05:04:12.271Z,95.50
2022-12-08T05:06:39.536Z,95.50
2022-12-08T05:09:06.795Z,95.40
2022-12-08T05:11:34.071Z,95.40
2022-12-08T05:14:01.455Z,95.40
2022-12-08T05:16:28.766Z,95.40
2022-12-08T05:18:56.264Z,95.70
2022-12-08T05:21:23.545Z,95.40
2022-12-08T05:23:50.809Z,95.40
2022-12-08T05:26:18.080Z,95.50
2022-12-08T05:28:45.436Z,95.50
2022-12-08T05:31:14.654Z,95.50
2022-12-08T05:33:42.158Z,95.50
2022-12-08T05:36:11.835Z,95.40
2022-12-08T05:38:40.861Z,95.50
2022-12-08T05:41:09.564Z,95.60
2022-12-08T05:43:36.891Z,95.60
2022-12-08T05:46:04.895Z,95.50
2022-12-08T05:48:32.507Z,95.40
2022-12-08T05:50:59.764Z,95.50
2022-12-08T05:53:27.643Z,95.60
2022-12-08T05:55:55.034Z,95.50
2022-12-08T05:58:23.781Z,95.20
2022-12-08T06:00:51.252Z,95.80
2022-12-08T06:03:19.714Z,95.50
2022-12-08T06:05:47.574Z,95.60
2022-12-08T06:08:14.976Z,95.60
2022-12-08T06:10:43.855Z,95.60
2022-12-08T06:13:11.314Z,95.90
2022-12-08T06:15:39.407Z,95.40
2022-12-08T06:18:07.279Z,95.50
2022-12-08T06:20:35.064Z,95.90
2022-12-08T06:23:03.641Z,95.60
2022-12-08T06:25:31.369Z,95.50
2022-12-08T06:27:58.684Z,95.50
2022-12-08T06:30:29.836Z,95.50
2022-12-08T06:32:57.295Z,95.60
2022-12-08T06:35:24.535Z,95.50
2022-12-08T06:37:52.015Z,95.50
2022-12-08T06:40:19.963Z,95.40
2022-12-08T06:42:47.693Z,95.50
2022-12-08T06:45:17.346Z,95.50
2022-12-08T06:47:44.746Z,95.50
2022-12-08T06:50:13.713Z,95.50
2022-12-08T06:52:51.697Z,95.70
2022-12-08T06:55:50.768Z,95.60
2022-12-08T06:58:11.654Z,95.60
2022-12-08T07:00:40.731Z,95.70
2022-12-08T07:03:09.347Z,95.70
2022-12-08T07:05:37.625Z,95.70
2022-12-08T07:08:06.978Z,95.60
2022-12-08T07:10:35.497Z,95.60
2022-12-08T07:13:03.276Z,95.60
2022-12-08T07:15:31.937Z,95.70
2022-12-08T07:18:00.281Z,95.70
2022-12-08T07:20:27.991Z,95.80
2022-12-08T07:22:55.815Z,95.80
2022-12-08T07:25:23.420Z,95.80
2022-12-08T07:27:52.591Z,95.70
2022-12-08T07:30:20.157Z,95.70
2022-12-08T07:32:47.561Z,95.80
2022-12-08T07:35:15.064Z,95.80
2022-12-08T07:37:42.767Z,95.90
2022-12-08T07:40:10.824Z,95.80
2022-12-08T07:42:38.643Z,95.80
2022-12-08T07:45:06.686Z,95.90
2022-12-08T07:47:34.317Z,95.70
2022-12-08T07:50:02.024Z,95.60
2022-12-08T07:52:29.472Z,95.70
2022-12-08T07:54:56.875Z,95.70
2022-12-08T07:57:24.239Z,95.70
2022-12-08T07:59:52.198Z,95.80
2022-12-08T08:02:24.931Z,95.60
2022-12-08T08:04:53.620Z,95.80
2022-12-08T08:07:23.799Z,95.80
2022-12-08T08:09:51.377Z,95.70
2022-12-08T08:12:34.197Z,95.80
2022-12-08T08:15:01.819Z,95.80
2022-12-08T08:17:29.876Z,95.90
2022-12-08T08:19:57.919Z,95.90
2022-12-08T08:22:26.219Z,95.80
2022-12-08T08:24:54.787Z,95.90
2022-12-08T08:27:22.844Z,95.90
2022-12-08T08:29:50.327Z,96.00
2022-12-08T08:32:17.885Z,96.00
2022-12-08T08:34:45.356Z,95.90
2022-12-08T08:37:12.875Z,96.10
2022-12-08T08:39:40.714Z,96.00
2022-12-08T08:42:08.094Z,96.00
2022-12-08T08:44:35.815Z,95.90
2022-12-08T08:47:03.917Z,96.10
2022-12-08T08:52:41.182Z,96.10
2022-12-08T08:58:20.222Z,96.40
2022-12-08T09:00:48.609Z,96.20
2022-12-08T09:03:16.755Z,95.80
2022-12-08T09:05:44.165Z,96.00
2022-12-08T09:08:11.685Z,95.90
2022-12-08T09:10:39.078Z,96.20
2022-12-08T09:13:06.713Z,96.20
2022-12-08T09:15:34.175Z,96.00
2022-12-08T09:18:01.540Z,96.00
2022-12-08T09:20:29.226Z,96.10
2022-12-08T09:22:56.739Z,95.80
2022-12-08T09:25:24.156Z,95.90
2022-12-08T09:27:51.929Z,95.50
2022-12-08T09:30:19.346Z,95.70
2022-12-08T09:32:46.757Z,95.80
2022-12-08T09:35:14.309Z,95.40
2022-12-08T09:37:43.157Z,95.40
2022-12-08T09:40:18.251Z,95.50
2022-12-08T09:43:21.072Z,95.60
2022-12-08T09:45:51.920Z,95.70
2022-12-08T09:48:24.529Z,95.70
2022-12-08T09:50:57.302Z,95.60
2022-12-08T09:53:38.194Z,95.70
2022-12-08T09:56:22.680Z,95.80
2022-12-08T09:58:55.672Z,95.40
2022-12-08T10:01:26.794Z,95.30
2022-12-08T10:03:57.496Z,95.40
2022-12-08T10:06:47.836Z,95.60
2022-12-08T10:09:38.646Z,95.50
2022-12-08T10:12:36.562Z,95.20
2022-12-08T10:15:38.985Z,95.20
2022-12-08T10:18:25.027Z,95.10
2022-12-08T10:20:52.972Z,94.40
2022-12-08T10:23:29.718Z,94.30
2022-12-08T10:26:02.401Z,94.50
2022-12-08T10:28:31.030Z,94.70
2022-12-08T10:30:58.530Z,94.70
2022-12-08T10:33:29.119Z,94.20
2022-12-08T10:35:58.601Z,94.00
2022-12-08T10:38:31.320Z,94.20
2022-12-08T10:41:14.737Z,94.20
2022-12-08T10:43:54.297Z,94.10
2022-12-08T10:46:25.727Z,94.10
2022-12-08T10:48:56.689Z,94.30
2022-12-08T10:51:24.146Z,94.40
2022-12-08T10:53:51.511Z,94.20
2022-12-08T10:56:19.112Z,94.20
2022-12-08T10:58:48.426Z,94.20
2022-12-08T11:01:24.220Z,94.10
2022-12-08T11:03:59.150Z,94.10
2022-12-08T11:06:34.135Z,94.20
2022-12-08T11:09:22.852Z,94.10
2022-12-08T11:12:06.387Z,93.90
2022-12-08T11:14:48.433Z,93.80
2022-12-08T11:17:27.127Z,93.80
2022-12-08T11:20:23.250Z,93.80
2022-12-08T11:22:57.267Z,93.60
2022-12-08T11:25:27.866Z,93.70
2022-12-08T11:28:00.221Z,93.90
2022-12-08T11:30:58.675Z,93.90
2022-12-08T11:36:36.155Z,93.80
2022-12-08T11:39:05.387Z,93.90
2022-12-08T11:41:39.604Z,94.00
2022-12-08T11:44:24.195Z,93.60
2022-12-08T11:46:56.999Z,93.60
2022-12-08T11:49:37.996Z,93.50
2022-12-08T11:52:21.800Z,93.70
2022-12-08T11:54:58.639Z,93.60
2022-12-08T11:57:29.619Z,93.70
2022-12-08T11:59:58.733Z,93.60
2022-12-08T12:02:34.369Z,93.50
2022-12-08T12:06:03.373Z,93.40
2022-12-08T12:08:48.580Z,93.30
2022-12-08T12:12:10.644Z,93.60
2022-12-08T12:14:57.770Z,93.50
2022-12-08T12:17:39.505Z,92.90
2022-12-08T12:20:20.215Z,93.00
2022-12-08T12:22:52.370Z,93.10
2022-12-08T12:25:23.819Z,93.10
2022-12-08T12:27:57.249Z,92.60
2022-12-08T12:30:27.814Z,92.70
2022-12-08T12:32:59.177Z,92.70
2022-12-08T12:35:34.756Z,92.40
2022-12-08T12:38:35.582Z,92.40
2022-12-08T12:41:05.376Z,92.20
2022-12-08T12:43:38.815Z,91.90
2022-12-08T12:46:25.489Z,91.90
2022-12-08T12:48:53.459Z,91.70
2022-12-08T12:51:42.081Z,91.60
2022-12-08T12:54:22.009Z,91.90
2022-12-08T12:56:55.652Z,91.70
2022-12-08T12:59:46.172Z,91.70
2022-12-08T13:02:29.521Z,92.00
2022-12-08T13:05:17.316Z,92.00
2022-12-08T13:07:50.852Z,92.00
2022-12-08T13:10:26.147Z,91.50
2022-12-08T13:13:16.518Z,91.30
2022-12-08T13:16:19.631Z,91.20
2022-12-08T13:18:50.810Z,91.30
2022-12-08T13:21:23.369Z,90.80
2022-12-08T13:24:13.105Z,91.50
2022-12-08T13:26:49.204Z,91.00
2022-12-08T13:29:22.406Z,90.70
2022-12-08T13:31:57.819Z,90.20
2022-12-08T13:34:28.735Z,90.30
2022-12-08T13:37:13.706Z,90.10
2022-12-08T13:43:18.088Z,89.90
2022-12-08T13:55:58.691Z,88.50
2022-12-08T13:57:37.297Z,88.50
2022-12-08T14:00:14.949Z,88.90
2022-12-08T14:02:48.082Z,88.50
2022-12-08T14:05:23.598Z,88.60
2022-12-08T14:07:57.449Z,88.20
2022-12-08T14:10:28.235Z,87.70
2022-12-08T14:13:05.648Z,88.60
2022-12-08T14:15:38.274Z,88.50
2022-12-08T14:18:21.459Z,87.90
2022-12-08T14:21:21.150Z,88.20
2022-12-08T14:23:48.985Z,88.80
2022-12-08T14:26:16.358Z,88.90
2022-12-08T14:28:45.296Z,89.80
2022-12-08T14:31:14.391Z,90.00
2022-12-08T14:33:42.855Z,89.70
2022-12-08T14:36:14.542Z,89.10
2022-12-08T14:38:41.926Z,90.30
2022-12-08T14:41:11.842Z,88.90
2022-12-08T14:43:40.916Z,89.10
2022-12-08T14:46:22.797Z,89.90
2022-12-08T14:48:50.349Z,90.00
2022-12-08T14:51:21.126Z,88.40
2022-12-08T14:54:07.401Z,89.80
2022-12-08T14:56:36.894Z,89.50
2022-12-08T14:59:19.783Z,88.60
2022-12-08T15:01:49.825Z,87.80
2022-12-08T15:04:27.334Z,87.90
2022-12-08T15:07:00.760Z,87.70
2022-12-08T15:09:45.379Z,87.00
2022-12-08T15:12:13.519Z,87.20
2022-12-08T15:14:57.894Z,86.60
2022-12-08T15:17:48.115Z,86.50
2022-12-08T15:20:42.863Z,86.90
2022-12-08T15:23:29.240Z,87.50
2022-12-08T15:25:57.673Z,87.40
2022-12-08T15:28:30.233Z,87.00
2022-12-08T15:30:58.761Z,87.20
2022-12-08T15:33:26.896Z,87.00
2022-12-08T15:35:54.426Z,88.20
2022-12-08T15:38:29.154Z,88.30
2022-12-08T15:41:00.497Z,87.70
2022-12-08T15:43:28.353Z,88.30
2022-12-08T15:46:00.213Z,88.50
2022-12-08T15:48:29.965Z,88.60
2022-12-08T15:50:57.819Z,88.70
2022-12-08T15:53:25.619Z,88.90
2022-12-08T15:58:57.614Z,89.20
2022-12-08T16:01:27.231Z,88.00
2022-12-08T16:04:37.224Z,89.30
2022-12-08T16:09:39.001Z,90.20
2022-12-08T16:18:26.298Z,90.60
2022-12-08T16:23:43.668Z,90.60
2022-12-08T16:26:28.673Z,91.10
2022-12-08T16:29:03.981Z,91.30
2022-12-08T16:31:31.675Z,91.40
2022-12-08T16:33:59.456Z,91.40
2022-12-08T16:36:26.973Z,91.20
2022-12-08T16:38:54.494Z,91.20
2022-12-08T16:41:40.548Z,91.40
2022-12-08T16:44:08.356Z,91.60
2022-12-08T16:46:36.905Z,91.30
2022-12-08T16:49:07.659Z,91.40
2022-12-08T16:51:35.080Z,91.50
2022-12-08T16:54:02.418Z,91.40
2022-12-08T16:56:33.108Z,91.50
2022-12-08T16:59:01.921Z,91.60
2022-12-08T17:01:29.684Z,91.60
2022-12-08T17:06:45.038Z,91.70
2022-12-08T17:09:12.467Z,91.80
2022-12-08T17:11:43.382Z,91.90
2022-12-08T17:14:15.071Z,91.50
2022-12-08T17:16:43.704Z,91.80
2022-12-08T17:19:13.826Z,91.80
2022-12-08T17:21:42.267Z,91.90
2022-12-08T17:24:09.632Z,91.90
2022-12-08T17:26:36.955Z,91.90
2022-12-08T17:29:05.297Z,92.00
2022-12-08T17:31:33.196Z,92.10
2022-12-08T17:34:02.598Z,92.20
2022-12-08T17:36:30.345Z,92.30
2022-12-08T17:39:00.277Z,92.30
2022-12-08T17:41:28.677Z,92.40
2022-12-08T17:43:56.842Z,92.40
2022-12-08T17:46:24.471Z,92.40
2022-12-08T17:48:52.594Z,92.40
2022-12-08T17:51:20.177Z,92.50
2022-12-08T17:53:47.548Z,92.60
2022-12-08T17:56:20.922Z,92.40
2022-12-08T17:58:54.393Z,92.50
2022-12-08T18:01:23.570Z,92.30
2022-12-08T18:03:51.874Z,92.40
2022-12-08T18:06:19.377Z,92.30
2022-12-08T18:08:47.111Z,92.10
2022-12-08T18:11:18.563Z,92.00
2022-12-08T18:13:47.401Z,92.20
2022-12-08T18:16:15.683Z,92.30
2022-12-08T18:18:43.486Z,92.30
2022-12-08T18:21:10.886Z,92.40
2022-12-08T18:23:42.008Z,92.50
2022-12-08T18:26:11.671Z,92.50
2022-12-08T18:28:39.336Z,92.40
2022-12-08T18:31:17.227Z,92.40
2022-12-08T18:33:46.341Z,92.30
2022-12-08T18:36:17.117Z,92.50
2022-12-08T18:38:45.064Z,92.40
2022-12-08T18:41:16.983Z,92.40
2022-12-08T18:43:44.912Z,92.50
2022-12-08T18:46:14.462Z,92.60
2022-12-08T18:48:48.504Z,92.60
2022-12-08T18:51:20.414Z,92.60
2022-12-08T18:53:48.574Z,92.60
2022-12-08T18:56:28.564Z,92.70
2022-12-08T18:59:03.300Z,92.60
2022-12-08T19:01:33.165Z,92.80
2022-12-08T19:06:51.315Z,92.70
2022-12-08T19:09:18.760Z,92.40
2022-12-08T19:11:46.224Z,92.50
2022-12-08T19:14:13.518Z,92.40
2022-12-08T19:16:40.988Z,92.30
2022-12-08T19:19:08.344Z,92.60
2022-12-08T19:21:36.090Z,92.40
2022-12-08T19:24:04.791Z,92.50
2022-12-08T19:26:32.228Z,92.50
2022-12-08T19:29:01.106Z,92.60
2022-12-08T19:31:28.667Z,92.60
2022-12-08T19:33:57.145Z,92.70
2022-12-08T19:36:26.302Z,92.60
2022-12-08T19:39:12.554Z,92.70
2022-12-08T19:42:00.229Z,92.60
2022-12-08T19:44:47.629Z,92.70
2022-12-08T19:47:15.428Z,92.70
2022-12-08T19:49:42.949Z,92.70
2022-12-08T19:52:10.339Z,92.60
2022-12-08T19:54:38.130Z,92.50
2022-12-08T19:57:05.719Z,92.40
2022-12-08T19:59:33.062Z,92.40
2022-12-08T20:02:00.619Z,92.30
2022-12-08T20:04:28.452Z,92.30
2022-12-08T20:06:56.593Z,92.40
2022-12-08T20:09:24.640Z,92.20
2022-12-08T20:11:54.532Z,92.40
2022-12-08T20:14:23.163Z,92.20
2022-12-08T20:16:51.292Z,92.10
2022-12-08T20:19:18.808Z,92.10
2022-12-08T20:21:46.501Z,92.20
2022-12-08T20:24:14.329Z,92.20
2022-12-08T20:26:41.947Z,92.30
2022-12-08T20:29:09.475Z,92.20
2022-12-08T20:31:37.366Z,92.10
2022-12-08T20:34:04.798Z,92.20
2022-12-08T20:36:32.398Z,92.10
2022-12-08T20:38:59.795Z,92.40
2022-12-08T20:41:27.576Z,92.40
2022-12-08T20:43:55.045Z,92.20
2022-12-08T20:46:22.487Z,92.20
2022-12-08T20:48:50.062Z,92.20
2022-12-08T20:51:19.653Z,92.30
2022-12-08T20:53:47.607Z,92.20
2022-12-08T20:56:20.338Z,92.10
2022-12-08T20:58:49.295Z,92.20
2022-12-08T21:01:20.113Z,92.30
2022-12-08T21:03:49.190Z,92.20
2022-12-08T21:06:16.988Z,92.30
2022-12-08T21:08:44.740Z,92.10
2022-12-08T21:11:13.638Z,92.10
2022-12-08T21:13:41.290Z,92.10
2022-12-08T21:16:16.444Z,92.20
2022-12-08T21:18:44.044Z,92.50
2022-12-08T21:21:14.465Z,92.50
2022-12-08T21:23:42.837Z,92.20
2022-12-08T21:26:21.785Z,92.30
2022-12-08T21:28:49.743Z,92.40
2022-12-08T21:31:21.533Z,92.40
2022-12-08T21:33:49.253Z,92.20
2022-12-08T21:36:20.483Z,92.10
2022-12-08T21:38:48.986Z,92.20
2022-12-08T21:41:40.151Z,92.30
2022-12-08T21:44:10.676Z,92.20
2022-12-08T21:46:38.483Z,92.20
2022-12-08T21:49:06.058Z,92.20
2022-12-08T21:51:35.071Z,92.00
2022-12-08T21:54:02.650Z,92.00
2022-12-08T21:56:30.113Z,91.90
2022-12-08T21:58:57.720Z,91.90
2022-12-08T22:01:25.676Z,91.70
2022-12-08T22:03:53.719Z,91.90
2022-12-08T22:06:21.456Z,92.00
2022-12-08T22:08:49.108Z,91.90
2022-12-08T22:11:16.495Z,92.00
2022-12-08T22:13:43.868Z,92.00
2022-12-08T22:16:14.545Z,92.10
2022-12-08T22:18:42.841Z,91.90
2022-12-08T22:21:16.718Z,91.90
2022-12-08T22:23:44.466Z,91.80
2022-12-08T22:26:12.665Z,91.90
2022-12-08T22:28:42.490Z,91.90
2022-12-08T22:31:11.537Z,92.00
2022-12-08T22:33:40.417Z,91.80
2022-12-08T22:36:12.795Z,91.70
2022-12-08T22:38:40.645Z,91.70
2022-12-08T22:41:08.721Z,91.70
2022-12-08T22:43:37.211Z,91.80
2022-12-08T22:46:12.146Z,91.90
2022-12-08T22:48:40.087Z,91.80
2022-12-08T22:51:07.949Z,92.10
2022-12-08T22:53:35.460Z,91.70
2022-12-08T22:56:08.117Z,91.60
2022-12-08T22:58:36.391Z,91.60
2022-12-08T23:01:04.692Z,91.80
2022-12-08T23:03:32.119Z,91.70
2022-12-08T23:05:59.556Z,91.80
2022-12-08T23:08:27.204Z,91.90
2022-12-08T23:10:54.900Z,91.90
2022-12-08T23:13:22.423Z,92.10
2022-12-08T23:15:50.006Z,92.10
2022-12-08T23:18:19.244Z,92.40
2022-12-08T23:20:47.848Z,92.50
2022-12-08T23:23:15.578Z,92.50
2022-12-08T23:25:43.301Z,92.50
2022-12-08T23:28:13.197Z,92.60
2022-12-08T23:30:43.160Z,92.70
2022-12-08T23:33:10.647Z,92.70
2022-12-08T23:35:38.405Z,92.70
2022-12-08T23:38:05.629Z,92.60
2022-12-08T23:40:32.973Z,92.70
2022-12-08T23:43:00.723Z,92.80
2022-12-08T23:45:28.313Z,92.70
2022-12-08T23:47:55.998Z,92.80
2022-12-08T23:50:23.532Z,92.90
2022-12-08T23:52:50.942Z,92.90
2022-12-08T23:55:18.647Z,92.80
2022-12-08T23:57:46.340Z,92.70
